Main page
Satellite images 15-day forecastsClimateMarine weather Cyclones Lightning AirportsFAQ Newsletter About
Weather : Europe Africa North America South America Asia Australia-Oceania Others
Languages Contact

Belgrade, Serbia

Nikola Tesla

latitude: 44-49N, longitude: 020-17E, elevation: 96 m


METAR: LYBE 020200Z 20005KT 7000 NSC 14/12 Q1023 NOSIG
TAF: LYBE 012300Z 0200/0224 VRB02KT CAVOK TX23/0213Z TN12/0204Z

Time: 04:19 (02:19 UTC)

Current weather observation

The report was made 19 minutes ago, at 02:00 UTC  
Wind 05 kt from the South/Southwest
Temperature 14°C
Humidity 88%
Pressure 1023 hPa
Visibility 7000 m

Change units

Forecast

The report was made 03 hours and 19 minutes ago, at 23:00 UTC  
Forecast valid from 02 at 00 UTC to 02 at 24 UTC
Wind 02 kt from variable directions
Visibility 10 km or more
no clouds below 1500 m and no cumulonimbus
The information on this site is subject to a disclaimer
Weather : Europe Africa North America South America Asia Australia-Oceania Others
Satellite images 15-day forecastsClimateMarine weather Cyclones Lightning AirportsFAQ Languages Contact Newsletter About